createdAt,value
2018-03-17T00:00:01.632Z,81.38
2018-03-17T00:01:11.331Z,81.48
2018-03-17T00:02:20.816Z,81.85
2018-03-17T00:03:30.519Z,81.1
2018-03-17T00:04:40.478Z,81.67
2018-03-17T00:05:50.438Z,81.67
2018-03-17T00:07:00.384Z,81.95
2018-03-17T00:08:10.401Z,81.76
2018-03-17T00:09:20.365Z,82.14
2018-03-17T00:10:30.319Z,82.51
2018-03-17T00:11:40.277Z,81.48
2018-03-17T00:12:50.243Z,81.76
2018-03-17T00:14:00.195Z,82.8
2018-03-17T00:15:10.162Z,82.42
2018-03-17T00:16:20.129Z,82.14
2018-03-17T00:17:30.102Z,81.85
2018-03-17T00:18:39.546Z,81.01
2018-03-17T00:19:48.977Z,81.76
2018-03-17T00:20:58.703Z,81.1
2018-03-17T00:22:08.710Z,81.2
2018-03-17T00:23:18.407Z,81.01
2018-03-17T00:24:28.096Z,80.34
2018-03-17T00:25:37.794Z,81.48
2018-03-17T00:26:47.226Z,81.95
2018-03-17T00:27:56.409Z,81.2
2018-03-17T00:29:05.873Z,80.44
2018-03-17T00:30:15.831Z,80.91
2018-03-17T00:31:25.270Z,81.57
2018-03-17T00:32:35.207Z,81.95
2018-03-17T00:33:45.178Z,81.48
2018-03-17T00:34:54.880Z,80.91
2018-03-17T00:36:04.837Z,81.76
2018-03-17T00:37:14.275Z,80.72
2018-03-17T00:38:24.243Z,81.2
2018-03-17T00:39:34.221Z,81.1
2018-03-17T00:40:43.949Z,81.76
2018-03-17T00:41:53.384Z,82.42
2018-03-17T00:43:03.341Z,82.61
2018-03-17T00:44:13.052Z,81.85
2018-03-17T00:45:22.756Z,81.38
2018-03-17T00:46:32.713Z,81.67
2018-03-17T00:47:42.667Z,81.29
2018-03-17T00:48:52.165Z,80.44
2018-03-17T00:50:02.120Z,80.15
2018-03-17T00:51:12.075Z,80.91
2018-03-17T00:52:21.556Z,81.01
2018-03-17T00:53:31.248Z,80.53
2018-03-17T00:54:41.262Z,79.87
2018-03-17T00:55:50.969Z,79.74
2018-03-17T00:57:00.682Z,80.3
2018-03-17T00:58:10.643Z,80.02
2018-03-17T00:59:20.082Z,79.74
2018-03-17T01:00:30.043Z,79.46
2018-03-17T01:01:39.998Z,80.11
2018-03-17T01:02:49.705Z,80.02
2018-03-17T01:03:59.138Z,80.02
2018-03-17T01:05:08.839Z,79.36
2018-03-17T01:06:18.538Z,80.11
2018-03-17T01:07:28.241Z,80.02
2018-03-17T01:08:37.702Z,80.49
2018-03-17T01:09:47.659Z,81.81
2018-03-17T01:10:57.349Z,81.72
2018-03-17T01:12:06.785Z,81.72
2018-03-17T01:13:16.248Z,80.77
2018-03-17T01:14:25.925Z,80.21
2018-03-17T01:15:35.866Z,80.11
2018-03-17T01:16:45.566Z,80.58
2018-03-17T01:17:55.516Z,80.49
2018-03-17T01:19:05.465Z,80.58
2018-03-17T01:20:15.173Z,80.4
2018-03-17T01:21:24.864Z,80.02
2018-03-17T01:22:34.041Z,81.05
2018-03-17T01:23:43.990Z,80.77
2018-03-17T01:24:53.689Z,80.21
2018-03-17T01:26:03.399Z,79.74
2018-03-17T01:27:12.832Z,80.3
2018-03-17T01:28:22.530Z,80.68
2018-03-17T01:29:31.710Z,80.49
2018-03-17T01:30:41.416Z,80.96
2018-03-17T01:31:51.108Z,79.93
2018-03-17T01:33:01.069Z,80.58
2018-03-17T01:34:10.766Z,80.87
2018-03-17T01:35:20.463Z,80.68
2018-03-17T01:36:30.419Z,80.3
2018-03-17T01:37:40.101Z,80.21
2018-03-17T01:38:50.062Z,80.68
2018-03-17T01:39:59.758Z,80.11
2018-03-17T01:41:09.194Z,79.93
2018-03-17T01:42:18.636Z,79.74
2018-03-17T01:43:28.586Z,79.55
2018-03-17T01:44:38.016Z,80.49
2018-03-17T01:45:47.962Z,80.49
2018-03-17T01:46:57.653Z,80.77
2018-03-17T01:48:07.622Z,81.43
2018-03-17T01:49:17.311Z,81.15
2018-03-17T01:50:27.328Z,80.58
2018-03-17T01:51:37.289Z,80.02
2018-03-17T01:52:47.253Z,81.05
2018-03-17T01:53:56.947Z,81.43
2018-03-17T01:55:06.640Z,80.77
2018-03-17T01:56:16.607Z,80.4
2018-03-17T01:57:26.552Z,80.49
2018-03-17T01:58:36.502Z,80.49
2018-03-17T01:59:46.456Z,80.77
2018-03-17T02:00:56.157Z,80.4
2018-03-17T02:02:06.135Z,80.3
2018-03-17T02:03:15.825Z,81.05
2018-03-17T02:04:25.554Z,80.77
2018-03-17T02:05:34.957Z,80.58
2018-03-17T02:06:44.901Z,81.05
2018-03-17T02:07:54.842Z,80.87
2018-03-17T02:09:04.804Z,80.96
2018-03-17T02:10:14.762Z,80.96
2018-03-17T02:11:24.716Z,81.15
2018-03-17T02:12:34.663Z,80.77
2018-03-17T02:13:44.618Z,81.15
2018-03-17T02:14:54.566Z,81.05
2018-03-17T02:16:04.521Z,80.58
2018-03-17T02:17:14.519Z,81.34
2018-03-17T02:18:24.476Z,81.62
2018-03-17T02:19:34.167Z,80.87
2018-03-17T02:20:43.861Z,80.21
2018-03-17T02:21:53.565Z,80.21
2018-03-17T02:23:03.255Z,80.49
2018-03-17T02:24:12.663Z,81.34
2018-03-17T02:25:22.648Z,80.77
2018-03-17T02:26:32.405Z,80.49
2018-03-17T02:27:42.111Z,80.4
2018-03-17T02:28:51.791Z,81.62
2018-03-17T02:30:01.750Z,81.62
2018-03-17T02:31:11.196Z,81.3
2018-03-17T02:32:20.900Z,81.05
2018-03-17T02:33:30.616Z,81.53
2018-03-17T02:34:40.624Z,82
2018-03-17T02:35:50.388Z,82
2018-03-17T02:37:00.352Z,81.72
2018-03-17T02:38:10.058Z,81.43
2018-03-17T02:39:19.760Z,81.62
2018-03-17T02:40:29.722Z,80.87
2018-03-17T02:41:39.682Z,80.11
2018-03-17T02:42:49.387Z,80.92
2018-03-17T02:43:59.339Z,80.96
2018-03-17T02:45:09.308Z,81.05
2018-03-17T02:46:19.267Z,80.68
2018-03-17T02:47:29.251Z,80.96
2018-03-17T02:48:39.204Z,81.4
2018-03-17T02:49:49.166Z,81.05
2018-03-17T02:50:59.119Z,80.3
2018-03-17T02:52:08.825Z,80.58
2018-03-17T02:53:18.546Z,81.3
2018-03-17T02:54:28.524Z,81.81
2018-03-17T02:55:38.485Z,81.34
2018-03-17T02:56:48.184Z,80.92
2018-03-17T02:57:57.886Z,80.64
2018-03-17T02:59:07.840Z,81.3
2018-03-17T03:00:17.550Z,81.49
2018-03-17T03:01:27.584Z,80.45
2018-03-17T03:02:37.543Z,80.45
2018-03-17T03:03:47.534Z,81.58
2018-03-17T03:04:57.512Z,81.49
2018-03-17T03:06:07.479Z,79.88
2018-03-17T03:07:17.441Z,79.98
2018-03-17T03:08:27.400Z,81.02
2018-03-17T03:09:37.367Z,80.83
2018-03-17T03:10:47.062Z,81.02
2018-03-17T03:11:56.501Z,80.54
2018-03-17T03:13:06.191Z,80.92
2018-03-17T03:14:15.885Z,81.4
2018-03-17T03:15:26.103Z,81.49
2018-03-17T03:16:36.071Z,80.92
2018-03-17T03:17:45.764Z,81.02
2018-03-17T03:18:55.716Z,81.21
2018-03-17T03:20:05.667Z,80.64
2018-03-17T03:21:15.884Z,80.83
2018-03-17T03:22:25.837Z,80.64
2018-03-17T03:23:35.782Z,80.54
2018-03-17T03:24:45.747Z,80.45
2018-03-17T03:25:55.697Z,80.92
2018-03-17T03:27:05.403Z,80.54
2018-03-17T03:28:15.421Z,81.3
2018-03-17T03:29:25.376Z,82.06
2018-03-17T03:30:35.324Z,81.21
2018-03-17T03:31:44.525Z,80.64
2018-03-17T03:32:54.727Z,81.11
2018-03-17T03:34:04.166Z,81.11
2018-03-17T03:35:14.179Z,80.45
2018-03-17T03:36:23.872Z,79.98
2018-03-17T03:37:33.823Z,79.98
2018-03-17T03:38:43.505Z,80.92
2018-03-17T03:39:53.194Z,81.21
2018-03-17T03:41:03.178Z,81.3
2018-03-17T03:42:12.887Z,81.49
2018-03-17T03:43:22.840Z,82.06
2018-03-17T03:44:33.036Z,82.62
2018-03-17T03:45:42.727Z,81.96
2018-03-17T03:46:52.426Z,82.06
2018-03-17T03:48:02.398Z,82.66
2018-03-17T03:49:12.087Z,83.42
2018-03-17T03:50:21.787Z,82.38
2018-03-17T03:51:31.484Z,81.91
2018-03-17T03:52:41.438Z,81.58
2018-03-17T03:53:50.882Z,81.77
2018-03-17T03:55:00.841Z,81.87
2018-03-17T03:56:11.043Z,81.3
2018-03-17T03:57:20.994Z,81.4
2018-03-17T03:58:30.676Z,81.77
2018-03-17T03:59:40.363Z,81.77
2018-03-17T04:00:50.323Z,81.49
2018-03-17T04:02:00.000Z,81.3
2018-03-17T04:03:09.737Z,81.3
2018-03-17T04:04:19.468Z,81.96
2018-03-17T04:05:29.179Z,81.87
2018-03-17T04:06:39.189Z,81.3
2018-03-17T04:07:49.130Z,81.3
2018-03-17T04:08:58.825Z,81.87
2018-03-17T04:10:08.522Z,82.9
2018-03-17T04:11:18.219Z,81.58
2018-03-17T04:12:27.919Z,81.4
2018-03-17T04:13:37.607Z,81.77
2018-03-17T04:14:47.553Z,81.68
2018-03-17T04:15:57.240Z,81.49
2018-03-17T04:17:07.186Z,81.4
2018-03-17T04:18:17.143Z,81.68
2018-03-17T04:19:27.111Z,82.53
2018-03-17T04:20:37.064Z,81.87
2018-03-17T04:21:47.008Z,81.49
2018-03-17T04:22:56.966Z,81.4
2018-03-17T04:24:06.665Z,81.68
2018-03-17T04:25:16.369Z,81.3
2018-03-17T04:26:25.817Z,80.92
2018-03-17T04:27:35.773Z,80.36
2018-03-17T04:28:45.770Z,81.11
2018-03-17T04:29:55.463Z,81.58
2018-03-17T04:31:04.901Z,81.4
2018-03-17T04:32:14.587Z,81.21
2018-03-17T04:33:24.538Z,81.4
2018-03-17T04:34:34.248Z,81.68
2018-03-17T04:35:44.210Z,82.43
2018-03-17T04:36:53.904Z,81.11
2018-03-17T04:38:03.084Z,80.83
2018-03-17T04:39:12.780Z,81.77
2018-03-17T04:40:22.722Z,82.24
2018-03-17T04:41:32.417Z,81.68
2018-03-17T04:42:42.374Z,81.68
2018-03-17T04:43:52.322Z,81.96
2018-03-17T04:45:02.011Z,81.96
2018-03-17T04:46:11.961Z,81.68
2018-03-17T04:47:21.991Z,81.21
2018-03-17T04:48:31.511Z,81.77
2018-03-17T04:49:41.206Z,82.53
2018-03-17T04:50:51.159Z,81.77
2018-03-17T04:52:00.856Z,81.87
2018-03-17T04:53:10.795Z,81.58
2018-03-17T04:54:20.220Z,81.77
2018-03-17T04:55:30.163Z,82.53
2018-03-17T04:56:39.874Z,82.71
2018-03-17T04:57:49.828Z,81.77
2018-03-17T04:58:59.274Z,82.43
2018-03-17T05:00:09.230Z,82.9
2018-03-17T05:01:19.016Z,81.96
2018-03-17T05:02:28.703Z,82.71
2018-03-17T05:03:37.625Z,82.62
2018-03-17T05:04:47.058Z,83.18
2018-03-17T05:05:56.483Z,83.47
2018-03-17T05:07:06.175Z,83.84
2018-03-17T05:08:15.864Z,82.43
2018-03-17T05:09:25.291Z,83.18
2018-03-17T05:10:34.998Z,83.94
2018-03-17T05:11:44.955Z,83.47
2018-03-17T05:12:54.648Z,82.71
2018-03-17T05:14:04.601Z,82.06
2018-03-17T05:15:14.297Z,82.24
2018-03-17T05:16:23.792Z,82.34
2018-03-17T05:17:33.480Z,81.87
2018-03-17T05:18:43.430Z,81.77
2018-03-17T05:19:53.117Z,82.34
2018-03-17T05:21:03.074Z,82.43
2018-03-17T05:22:12.776Z,81.96
2018-03-17T05:23:22.200Z,82.43
2018-03-17T05:24:31.640Z,81.77
2018-03-17T05:25:41.332Z,81.58
2018-03-17T05:26:50.250Z,81.49
2018-03-17T05:28:00.190Z,81.02
2018-03-17T05:29:09.885Z,81.11
2018-03-17T05:30:19.585Z,81.77
2018-03-17T05:31:29.531Z,81.3
2018-03-17T05:32:38.968Z,81.96
2018-03-17T05:33:48.927Z,82.62
2018-03-17T05:34:58.373Z,82.9
2018-03-17T05:36:08.323Z,82.43
2018-03-17T05:37:18.272Z,81.58
2018-03-17T05:38:27.960Z,80.73
2018-03-17T05:39:37.650Z,81.58
2018-03-17T05:40:47.362Z,81.49
2018-03-17T05:41:57.315Z,81.21
2018-03-17T05:43:07.009Z,81.02
2018-03-17T05:44:16.727Z,81.3
2018-03-17T05:45:26.684Z,81.49
2018-03-17T05:46:36.629Z,81.58
2018-03-17T05:47:46.338Z,81.4
2018-03-17T05:48:56.034Z,81.77
2018-03-17T05:50:05.996Z,81.3
2018-03-17T05:51:15.431Z,81.77
2018-03-17T05:52:24.863Z,81.49
2018-03-17T05:53:34.602Z,82.24
2018-03-17T05:54:44.551Z,82.15
2018-03-17T05:55:54.512Z,81.96
2018-03-17T05:57:04.466Z,82.24
2018-03-17T05:58:14.425Z,82.62
2018-03-17T05:59:24.111Z,81.49
2018-03-17T06:00:33.551Z,83.18
2018-03-17T06:01:42.999Z,82.9
2018-03-17T06:02:52.429Z,81.77
2018-03-17T06:04:01.870Z,82.24
2018-03-17T06:05:11.816Z,82.06
2018-03-17T06:06:21.800Z,82.43
2018-03-17T06:07:31.760Z,82.62
2018-03-17T06:08:41.195Z,82.15
2018-03-17T06:09:50.895Z,81.96
2018-03-17T06:11:00.332Z,82.81
2018-03-17T06:12:10.015Z,82.06
2018-03-17T06:13:19.966Z,81.68
2018-03-17T06:14:29.720Z,81.77
2018-03-17T06:15:39.933Z,82.06
2018-03-17T06:16:49.623Z,81.96
2018-03-17T06:17:59.325Z,81.3
2018-03-17T06:19:09.284Z,81.21
2018-03-17T06:20:19.252Z,81.87
2018-03-17T06:21:28.945Z,83
2018-03-17T06:22:38.652Z,82.43
2018-03-17T06:23:48.351Z,82.24
2018-03-17T06:24:57.520Z,81.96
2018-03-17T06:26:07.483Z,82.06
2018-03-17T06:27:17.172Z,82.06
2018-03-17T06:28:27.123Z,81.11
2018-03-17T06:29:36.815Z,81.4
2018-03-17T06:30:46.308Z,82.43
2018-03-17T06:31:56.111Z,82.06
2018-03-17T06:33:06.309Z,81.77
2018-03-17T06:34:16.011Z,81.58
2018-03-17T06:35:25.715Z,82.43
2018-03-17T06:36:35.667Z,82.71
2018-03-17T06:37:45.365Z,83
2018-03-17T06:38:54.793Z,82.43
2018-03-17T06:40:04.750Z,82.43
2018-03-17T06:41:14.435Z,82.81
2018-03-17T06:42:24.196Z,82.62
2018-03-17T06:43:33.628Z,82.62
2018-03-17T06:44:42.811Z,81.49
2018-03-17T06:45:52.766Z,81.49
2018-03-17T06:47:02.730Z,81.68
2018-03-17T06:48:12.167Z,81.77
2018-03-17T06:49:22.126Z,81.02
2018-03-17T06:50:31.816Z,80.73
2018-03-17T06:51:41.268Z,82.06
2018-03-17T06:52:50.722Z,81.58
2018-03-17T06:54:00.426Z,80.92
2018-03-17T06:55:10.412Z,81.3
2018-03-17T06:56:20.768Z,81.77
2018-03-17T06:57:30.476Z,81.68
2018-03-17T06:58:39.917Z,80.73
2018-03-17T06:59:49.367Z,80.92
2018-03-17T07:00:59.324Z,80.73
2018-03-17T07:02:09.018Z,81.58
2018-03-17T07:03:18.976Z,81.58
2018-03-17T07:04:28.428Z,81.11
2018-03-17T07:05:38.114Z,81.02
2018-03-17T07:06:47.548Z,81.02
2018-03-17T07:07:57.267Z,81.49
2018-03-17T07:09:06.710Z,80.92
2018-03-17T07:10:16.144Z,80.36
2018-03-17T07:11:26.102Z,80.92
2018-03-17T07:12:35.790Z,81.87
2018-03-17T07:13:45.743Z,82.24
2018-03-17T07:14:55.431Z,81.77
2018-03-17T07:16:04.870Z,81.4
2018-03-17T07:17:14.826Z,81.02
2018-03-17T07:18:24.790Z,81.3
2018-03-17T07:19:33.971Z,80.36
2018-03-17T07:20:43.402Z,80.83
2018-03-17T07:21:53.104Z,81.68
2018-03-17T07:23:02.795Z,81.68
2018-03-17T07:24:12.491Z,80.73
2018-03-17T07:25:21.755Z,79.88
2018-03-17T07:26:31.360Z,80.17
2018-03-17T07:27:40.794Z,80.17
2018-03-17T07:28:50.526Z,79.6
2018-03-17T07:30:00.227Z,79.88
2018-03-17T07:31:10.227Z,80.07
2018-03-17T07:32:19.657Z,80.92
2018-03-17T07:33:29.630Z,80.83
2018-03-17T07:34:39.335Z,80.45
2018-03-17T07:35:49.050Z,80.26
2018-03-17T07:36:58.769Z,80.17
2018-03-17T07:38:08.469Z,80.64
2018-03-17T07:39:18.161Z,79.22
2018-03-17T07:40:27.082Z,79.03
2018-03-17T07:41:36.787Z,79.03
2018-03-17T07:42:46.745Z,79.88
2018-03-17T07:43:56.703Z,79.64
2018-03-17T07:45:06.137Z,78.7
2018-03-17T07:46:15.585Z,80.49
2018-03-17T07:47:25.325Z,80.77
2018-03-17T07:48:34.765Z,79.55
2018-03-17T07:49:44.463Z,78.42
2018-03-17T07:50:54.157Z,78.6
2018-03-17T07:52:03.600Z,78.89
2018-03-17T07:53:13.037Z,79.08
2018-03-17T07:54:22.991Z,79.36
2018-03-17T07:55:32.988Z,78.7
2018-03-17T07:56:42.695Z,77.94
2018-03-17T07:57:52.415Z,78.32
2018-03-17T07:59:02.108Z,78.32
2018-03-17T08:00:12.057Z,77.94
2018-03-17T08:01:21.758Z,78.51
2018-03-17T08:02:31.476Z,78.89
2018-03-17T08:03:41.167Z,78.04
2018-03-17T08:04:50.619Z,78.42
2018-03-17T08:06:00.319Z,77.85
2018-03-17T08:07:10.296Z,78.7
2018-03-17T08:08:19.734Z,78.51
2018-03-17T08:09:28.920Z,78.23
2018-03-17T08:10:38.620Z,78.13
2018-03-17T08:11:48.575Z,78.23
2018-03-17T08:12:58.020Z,78.23
2018-03-17T08:14:07.984Z,77.56
2018-03-17T08:15:17.701Z,78.04
2018-03-17T08:16:27.659Z,77.85
2018-03-17T08:17:37.406Z,78.23
2018-03-17T08:18:47.065Z,77.66
2018-03-17T08:19:57.022Z,77.94
2018-03-17T08:21:06.997Z,77.37
2018-03-17T08:22:16.962Z,77.75
2018-03-17T08:23:26.963Z,78.42
2018-03-17T08:24:36.980Z,78.42
2018-03-17T08:25:46.947Z,77.19
2018-03-17T08:26:56.905Z,77.47
2018-03-17T08:28:06.343Z,77.66
2018-03-17T08:29:16.311Z,77.19
2018-03-17T08:30:26.277Z,75.49
2018-03-17T08:31:35.975Z,75.11
2018-03-17T08:32:45.682Z,76.34
2018-03-17T08:33:55.419Z,77.85
2018-03-17T08:35:04.860Z,76.9
2018-03-17T08:36:14.292Z,77.09
2018-03-17T08:37:24.269Z,77.13
2018-03-17T08:38:34.036Z,77.42
2018-03-17T08:39:44.018Z,76.09
2018-03-17T08:40:53.460Z,76
2018-03-17T08:42:02.908Z,75.15
2018-03-17T08:43:12.616Z,76.38
2018-03-17T08:44:22.579Z,76.85
2018-03-17T08:45:32.542Z,75.34
2018-03-17T08:46:41.729Z,74.49
2018-03-17T08:47:51.689Z,75.15
2018-03-17T08:49:01.129Z,75.4
2018-03-17T08:50:10.565Z,76.06
2018-03-17T08:51:20.559Z,76.34
2018-03-17T08:52:30.263Z,77
2018-03-17T08:53:40.218Z,77.37
2018-03-17T08:54:50.173Z,77.23
2018-03-17T08:56:00.150Z,76.76
2018-03-17T08:57:09.894Z,76.19
2018-03-17T08:58:19.598Z,76.66
2018-03-17T08:59:29.035Z,76.85
2018-03-17T09:00:38.479Z,76.28
2018-03-17T09:01:48.437Z,76.57
2018-03-17T09:02:58.140Z,76.19
2018-03-17T09:04:07.847Z,76
2018-03-17T09:05:17.811Z,75.15
2018-03-17T09:06:27.522Z,74.64
2018-03-17T09:07:37.229Z,75.02
2018-03-17T09:08:47.186Z,75.3
2018-03-17T09:09:56.919Z,75.96
2018-03-17T09:11:06.905Z,75.11
2018-03-17T09:12:16.878Z,75.02
2018-03-17T09:13:26.827Z,75.71
2018-03-17T09:14:36.813Z,76.28
2018-03-17T09:15:46.288Z,75.9
2018-03-17T09:16:56.007Z,75.05
2018-03-17T09:18:06.052Z,76.38
2018-03-17T09:19:16.062Z,76.95
2018-03-17T09:20:26.018Z,75.62
2018-03-17T09:21:35.977Z,74.68
2018-03-17T09:22:45.939Z,74.49
2018-03-17T09:23:55.908Z,74.21
2018-03-17T09:25:05.868Z,74.68
2018-03-17T09:26:15.828Z,73.55
2018-03-17T09:27:25.808Z,72.98
2018-03-17T09:28:35.778Z,74.02
2018-03-17T09:29:45.476Z,74.21
2018-03-17T09:30:54.919Z,74.68
2018-03-17T09:32:04.900Z,74.11
2018-03-17T09:33:14.337Z,74.21
2018-03-17T09:34:23.523Z,73.55
2018-03-17T09:35:33.499Z,73.74
2018-03-17T09:36:43.473Z,72.98
2018-03-17T09:37:53.263Z,72.69
2018-03-17T09:39:02.979Z,73.36
2018-03-17T09:40:12.430Z,73.36
2018-03-17T09:41:22.414Z,73.17
2018-03-17T09:42:32.122Z,73.45
2018-03-17T09:43:42.081Z,74.21
2018-03-17T09:44:51.790Z,73.07
2018-03-17T09:46:01.752Z,73.55
2018-03-17T09:47:11.447Z,73.74
2018-03-17T09:48:21.144Z,74.11
2018-03-17T09:49:31.181Z,73.83
2018-03-17T09:50:40.881Z,73.26
2018-03-17T09:51:50.064Z,73.64
2018-03-17T09:53:00.029Z,74.21
2018-03-17T09:54:09.468Z,73.74
2018-03-17T09:55:19.157Z,73.07
2018-03-17T09:56:29.113Z,73.83
2018-03-17T09:57:39.083Z,73.83
2018-03-17T09:58:49.031Z,74.4
2018-03-17T09:59:58.685Z,74.11
2018-03-17T10:01:08.131Z,73.45
2018-03-17T10:02:18.107Z,72.69
2018-03-17T10:03:28.069Z,73.64
2018-03-17T10:04:37.781Z,74.11
2018-03-17T10:05:47.222Z,73.64
2018-03-17T10:06:56.921Z,73.17
2018-03-17T10:08:07.146Z,74.21
2018-03-17T10:09:16.599Z,74.11
2018-03-17T10:10:26.585Z,74.02
2018-03-17T10:11:36.289Z,72.69
2018-03-17T10:12:45.986Z,73.36
2018-03-17T10:13:56.066Z,73.74
2018-03-17T10:15:05.792Z,73.74
2018-03-17T10:16:15.535Z,72.51
2018-03-17T10:17:25.250Z,71.69
2018-03-17T10:18:34.710Z,71.79
2018-03-17T10:19:44.174Z,71.6
2018-03-17T10:20:53.875Z,70.94
2018-03-17T10:22:03.592Z,69.9
2018-03-17T10:23:13.329Z,70.94
2018-03-17T10:24:23.303Z,71.6
2018-03-17T10:25:33.006Z,72.26
2018-03-17T10:26:42.988Z,71.03
2018-03-17T10:27:52.969Z,70.09
2018-03-17T10:29:02.666Z,70.09
2018-03-17T10:30:12.375Z,69.65
2018-03-17T10:31:22.099Z,69.65
2018-03-17T10:32:31.809Z,69.18
2018-03-17T10:33:41.261Z,70.21
2018-03-17T10:34:51.244Z,69.93
2018-03-17T10:36:00.724Z,69.37
2018-03-17T10:37:10.542Z,68.71
2018-03-17T10:38:19.991Z,68.52
2018-03-17T10:39:29.433Z,68.9
2018-03-17T10:40:39.152Z,68.42
2018-03-17T10:41:49.112Z,67.57
2018-03-17T10:42:58.322Z,67.66
2018-03-17T10:44:08.040Z,68.42
2018-03-17T10:45:17.751Z,68.99
2018-03-17T10:46:27.724Z,69.05
2018-03-17T10:47:37.734Z,69.52
2018-03-17T10:48:47.745Z,69.33
2018-03-17T10:49:57.756Z,70.21
2018-03-17T10:51:07.466Z,69.93
2018-03-17T10:52:17.169Z,69.65
2018-03-17T10:53:26.909Z,68.99
2018-03-17T10:54:36.379Z,69.93
2018-03-17T10:55:46.112Z,70.21
2018-03-17T10:56:56.087Z,67.47
2018-03-17T10:58:06.055Z,67.29
2018-03-17T10:59:15.773Z,66.25
2018-03-17T11:00:25.527Z,68.71
2018-03-17T11:01:35.508Z,67.29
2018-03-17T11:02:45.475Z,68.23
2018-03-17T11:03:54.670Z,67.29
2018-03-17T11:05:04.385Z,67.1
2018-03-17T11:06:13.972Z,66.56
2018-03-17T11:07:24.056Z,65.78
2018-03-17T11:08:33.763Z,67
2018-03-17T11:09:43.215Z,67.29
2018-03-17T11:10:52.932Z,68.14
2018-03-17T11:12:02.378Z,67.66
2018-03-17T11:13:11.834Z,66.63
2018-03-17T11:14:21.543Z,67.57
2018-03-17T11:15:31.501Z,67.76
2018-03-17T11:16:41.207Z,67.29
2018-03-17T11:17:50.921Z,68.14
2018-03-17T11:19:00.616Z,68.33
2018-03-17T11:20:10.067Z,68.23
2018-03-17T11:21:19.879Z,68.8
2018-03-17T11:22:29.857Z,67.19
2018-03-17T11:23:39.818Z,66.25
2018-03-17T11:24:49.272Z,66.91
2018-03-17T11:25:59.241Z,66.53
2018-03-17T11:27:08.945Z,67.19
2018-03-17T11:28:18.915Z,66.91
2018-03-17T11:29:29.006Z,66
2018-03-17T11:30:38.723Z,66.53
2018-03-17T11:31:48.689Z,66.91
2018-03-17T11:32:58.645Z,65.87
2018-03-17T11:34:08.606Z,66.25
2018-03-17T11:35:18.305Z,67
2018-03-17T11:36:28.003Z,67.76
2018-03-17T11:37:37.982Z,67.85
2018-03-17T11:38:47.453Z,67.1
2018-03-17T11:39:56.908Z,67.19
2018-03-17T11:41:06.876Z,68.33
2018-03-17T11:42:16.059Z,68.67
2018-03-17T11:43:26.034Z,68.86
2018-03-17T11:44:35.489Z,68.52
2018-03-17T11:45:45.464Z,70.09
2018-03-17T11:46:55.218Z,69.37
2018-03-17T11:48:05.252Z,68.71
2018-03-17T11:49:14.969Z,68.14
2018-03-17T11:50:24.158Z,68.33
2018-03-17T11:51:33.891Z,68.23
2018-03-17T11:52:43.852Z,68.14
2018-03-17T11:53:53.559Z,67.66
2018-03-17T11:55:03.263Z,67.66
2018-03-17T11:56:12.734Z,67.57
2018-03-17T11:57:22.705Z,67.57
2018-03-17T11:58:32.409Z,67.13
2018-03-17T11:59:42.115Z,67.03
2018-03-17T12:00:52.084Z,66
2018-03-17T12:02:02.043Z,66.09
2018-03-17T12:03:11.764Z,66.38
2018-03-17T12:04:21.737Z,66
2018-03-17T12:05:31.697Z,66.35
2018-03-17T12:06:41.408Z,67.22
2018-03-17T12:07:51.390Z,66
2018-03-17T12:09:01.351Z,65.15
2018-03-17T12:10:11.389Z,64.48
2018-03-17T12:11:21.095Z,65.72
2018-03-17T12:12:30.799Z,65.72
2018-03-17T12:13:40.783Z,64.96
2018-03-17T12:14:50.767Z,64.77
2018-03-17T12:16:00.480Z,64.11
2018-03-17T12:17:10.196Z,64.67
2018-03-17T12:18:19.654Z,64.77
2018-03-17T12:19:29.371Z,64.67
2018-03-17T12:20:39.339Z,64.11
2018-03-17T12:21:48.793Z,64.67
2018-03-17T12:22:58.764Z,65.72
2018-03-17T12:24:08.470Z,64.86
2018-03-17T12:25:18.194Z,65.43
2018-03-17T12:26:28.183Z,64.86
2018-03-17T12:27:38.413Z,64.96
2018-03-17T12:28:48.387Z,65.72
2018-03-17T12:29:57.856Z,64.48
2018-03-17T12:31:07.582Z,64.11
2018-03-17T12:32:17.564Z,64.01
2018-03-17T12:33:27.292Z,64.11
2018-03-17T12:34:36.768Z,62.97
2018-03-17T12:35:46.748Z,62.97
2018-03-17T12:36:56.193Z,62.88
2018-03-17T12:38:06.160Z,63.64
2018-03-17T12:39:15.614Z,61.87
2018-03-17T12:40:25.368Z,61.21
2018-03-17T12:41:35.516Z,60.83
2018-03-17T12:42:45.219Z,60.93
2018-03-17T12:43:54.937Z,61.58
2018-03-17T12:45:05.171Z,61.3
2018-03-17T12:46:14.628Z,61.4
2018-03-17T12:47:24.677Z,61.02
2018-03-17T12:48:33.873Z,60.36
2018-03-17T12:49:43.589Z,60.26
2018-03-17T12:50:53.559Z,59.44
2018-03-17T12:52:03.262Z,59.5
2018-03-17T12:53:13.249Z,60.17
2018-03-17T12:54:22.969Z,61.02
2018-03-17T12:55:32.670Z,59.88
2018-03-17T12:56:42.640Z,60.1
2018-03-17T12:57:52.628Z,58.68
2018-03-17T12:59:02.603Z,58.78
2018-03-17T13:00:12.324Z,58.59
2018-03-17T13:01:21.780Z,57.45
2018-03-17T13:02:31.763Z,57.64
2018-03-17T13:03:41.506Z,57.35
2018-03-17T13:04:51.389Z,56.91
2018-03-17T13:06:01.097Z,56.34
2018-03-17T13:07:11.092Z,57.01
2018-03-17T13:08:21.075Z,58.05
2018-03-17T13:09:30.812Z,57.57
2018-03-17T13:10:39.997Z,55.58
2018-03-17T13:11:49.706Z,54.64
2018-03-17T13:12:59.152Z,55.77
2018-03-17T13:14:09.131Z,55.77
2018-03-17T13:15:19.106Z,54.83
2018-03-17T13:16:29.076Z,55.21
2018-03-17T13:17:39.055Z,55.68
2018-03-17T13:18:48.779Z,55.77
2018-03-17T13:19:58.255Z,55.3
2018-03-17T13:21:08.002Z,53.25
2018-03-17T13:22:17.736Z,53.91
2018-03-17T13:23:27.442Z,54
2018-03-17T13:24:37.155Z,54.38
2018-03-17T13:25:46.613Z,53.34
2018-03-17T13:26:56.583Z,52.2
2018-03-17T13:28:06.045Z,52.68
2018-03-17T13:29:15.756Z,53.44
2018-03-17T13:30:25.729Z,52.39
2018-03-17T13:31:35.736Z,52.84
2018-03-17T13:32:45.712Z,53.69
2018-03-17T13:33:55.740Z,52.96
2018-03-17T13:35:05.221Z,53.25
2018-03-17T13:36:14.940Z,52.39
2018-03-17T13:37:24.656Z,52.48
2018-03-17T13:38:34.653Z,52.58
2018-03-17T13:39:44.640Z,52.48
2018-03-17T13:40:54.606Z,52.01
2018-03-17T13:42:04.587Z,52.39
2018-03-17T13:43:14.553Z,52.2
2018-03-17T13:44:24.291Z,52.68
2018-03-17T13:45:34.022Z,52.29
2018-03-17T13:46:44.018Z,52.39
2018-03-17T13:47:53.727Z,53.34
2018-03-17T13:49:03.213Z,54.07
2018-03-17T13:50:12.924Z,53.63
2018-03-17T13:51:22.639Z,53.06
2018-03-17T13:52:32.611Z,52.58
2018-03-17T13:53:42.057Z,52.29
2018-03-17T13:54:51.504Z,52.29
2018-03-17T13:56:00.959Z,52.68
2018-03-17T13:57:10.673Z,53.15
2018-03-17T13:58:20.390Z,53.63
2018-03-17T13:59:29.834Z,52.96
2018-03-17T14:00:39.802Z,52.29
2018-03-17T14:01:49.771Z,53.22
2018-03-17T14:02:59.500Z,53.97
2018-03-17T14:04:08.948Z,54.64
2018-03-17T14:05:18.923Z,55.21
2018-03-17T14:06:28.382Z,55.02
2018-03-17T14:07:38.352Z,55.37
2018-03-17T14:08:48.070Z,55.94
2018-03-17T14:09:57.795Z,56.98
2018-03-17T14:11:07.518Z,56.98
2018-03-17T14:12:17.230Z,57.35
2018-03-17T14:13:27.208Z,58.02
2018-03-17T14:14:36.418Z,58.49
2018-03-17T14:15:46.180Z,57.64
2018-03-17T14:16:56.184Z,56.22
2018-03-17T14:18:05.901Z,55.94
2018-03-17T14:19:15.883Z,55.46
2018-03-17T14:20:25.855Z,55.27
2018-03-17T14:21:35.576Z,55.94
2018-03-17T14:22:45.345Z,56.22
2018-03-17T14:23:54.548Z,57.35
2018-03-17T14:25:03.780Z,57.73
2018-03-17T14:26:13.767Z,57.42
2018-03-17T14:27:23.482Z,58.09
2018-03-17T14:28:32.668Z,58.47
2018-03-17T14:29:42.380Z,59.41
2018-03-17T14:30:51.824Z,59.88
2018-03-17T14:32:01.793Z,60.36
2018-03-17T14:33:11.508Z,59.6
2018-03-17T14:34:21.475Z,61.08
2018-03-17T14:35:31.440Z,61.93
2018-03-17T14:36:41.425Z,61.55
2018-03-17T14:37:51.441Z,61.93
2018-03-17T14:39:01.407Z,61.65
2018-03-17T14:40:11.125Z,62.21
2018-03-17T14:41:20.830Z,61.65
2018-03-17T14:42:30.827Z,62.12
2018-03-17T14:43:40.551Z,62.12
2018-03-17T14:44:50.523Z,61.83
2018-03-17T14:46:00.263Z,62.21
2018-03-17T14:47:09.964Z,62.12
2018-03-17T14:48:19.675Z,61.93
2018-03-17T14:49:29.642Z,62.31
2018-03-17T14:50:39.360Z,62.4
2018-03-17T14:51:48.825Z,61.83
2018-03-17T14:52:58.551Z,61.9
2018-03-17T14:54:08.526Z,63.04
2018-03-17T14:55:17.973Z,63.89
2018-03-17T14:56:27.692Z,64.45
2018-03-17T14:57:37.408Z,64.64
2018-03-17T14:58:47.128Z,63.79
2018-03-17T14:59:56.843Z,63.7
2018-03-17T15:01:06.553Z,63.7
2018-03-17T15:02:16.530Z,63.51